^^
Station Historical Data
Daily Summary for April 15, 2018 Units:  English    Metric   Both
« Previous Day
Next Day »
Daily Weekly Monthly Yearly Custom
  High: Low: Average:
Temperature: TemperatureF °F 43.0 °F 59.2 °F
Dew Point: DewpointF °F 39.2 °F 54.2 °F
Humidity: Humidity% 63% 84%
Wind Speed: WindSpeedMPHmph 0.0mph 1.8mph
Wind Gust: WindSpeedGustMPHmph - -
Wind- - SE
Pressure: PressureIn in 29.91 in -
Precipitation: 1.98 in    
Historical Graphs
 
 
Tabular Data for April 15, 2018
Time Temperature Dew Point Pressure Wind Wind Speed Wind Gust Humidity Rainfall Rate (Hourly)
TemperatureF °F DewpointF °F PressureIn in Calm     Humidity% HourlyPrecipIn in
00:04 69.3 °F 56.1 °F 30.30 in NNE 2.9 mph 11.0 mph 63% 0.00 in
00:09 69.3 °F 56.1 °F 30.29 in ESE 0.9 mph 6.0 mph 63% 0.00 in
00:14 69.3 °F 56.1 °F 30.30 in ESE 2.9 mph 8.0 mph 63% 0.00 in
00:19 69.1 °F 55.9 °F 30.29 in NE 6.9 mph 7.0 mph 63% 0.00 in
00:24 69.3 °F 56.5 °F 30.29 in NNE 0.9 mph 4.0 mph 64% 0.00 in
00:34 69.1 °F 56.5 °F 30.30 in NW 2.0 mph 6.0 mph 64% 0.00 in
00:39 68.9 °F 56.7 °F 30.29 in NE 0.9 mph 9.0 mph 65% 0.00 in
00:44 68.7 °F 56.1 °F 30.29 in East 4.0 mph 5.0 mph 64% 0.00 in
00:49 68.7 °F 56.1 °F 30.29 in Calm   3.0 mph 64% 0.00 in
00:54 68.7 °F 56.1 °F 30.29 in SE 2.9 mph 4.0 mph 64% 0.00 in
00:59 68.5 °F 56.3 °F 30.29 in WNW 2.0 mph 3.0 mph 65% 0.00 in
01:04 68.5 °F 56.3 °F 30.29 in SE 2.9 mph 8.0 mph 65% 0.00 in
01:14 68.7 °F 56.1 °F 30.29 in ENE 4.0 mph 6.0 mph 64% 0.00 in
01:19 68.7 °F 56.1 °F 30.28 in Calm   10.0 mph 64% 0.00 in
01:29 68.7 °F 56.1 °F 30.28 in SE 0.9 mph 8.0 mph 64% 0.00 in
01:34 68.7 °F 56.5 °F 30.29 in WSW 2.9 mph 3.0 mph 65% 0.00 in
01:39 68.5 °F 56.3 °F 30.28 in NE 6.9 mph 12.0 mph 65% 0.00 in
01:44 68.5 °F 56.3 °F 30.28 in SE 2.0 mph 10.0 mph 65% 0.00 in
01:54 68.2 °F 56.3 °F 30.28 in NE 2.0 mph 6.0 mph 66% 0.00 in
02:04 68.0 °F 56.7 °F 30.27 in SSE 0.9 mph 12.0 mph 67% 0.00 in
02:09 67.8 °F 56.5 °F 30.27 in NE 2.0 mph 7.0 mph 67% 0.00 in
02:14 67.5 °F 56.5 °F 30.27 in Calm   7.0 mph 68% 0.00 in
02:24 67.5 °F 57.0 °F 30.26 in NNE 2.9 mph 8.0 mph 69% 0.00 in
02:34 67.3 °F 56.8 °F 30.26 in ESE 2.0 mph 8.0 mph 69% 0.00 in
02:44 67.3 °F 57.2 °F 30.26 in Calm   8.0 mph 70% 0.00 in
02:59 66.9 °F 57.6 °F 30.25 in East 2.0 mph 4.0 mph 72% 0.00 in
03:04 66.9 °F 57.6 °F 30.24 in Calm   2.0 mph 72% 0.00 in
03:14 66.6 °F 57.6 °F 30.24 in Calm   7.0 mph 73% 0.00 in
03:19 66.7 °F 57.7 °F 30.23 in WSW 8.1 mph 9.0 mph 73% 0.00 in
03:24 66.7 °F 57.7 °F 30.23 in ENE 2.9 mph 18.0 mph 73% 0.00 in
03:34 66.7 °F 57.7 °F 30.22 in NE 4.0 mph 5.0 mph 73% 0.00 in
03:49 66.7 °F 58.1 °F 30.22 in NNE 2.0 mph 6.0 mph 74% 0.00 in
03:54 66.7 °F 58.1 °F 30.22 in NE 11.0 mph 11.0 mph 74% 0.00 in
03:59 66.7 °F 58.1 °F 30.21 in SSE 0.9 mph 11.0 mph 74% 0.00 in
04:09 66.6 °F 58.5 °F 30.22 in ENE 4.0 mph 12.0 mph 75% 0.00 in
04:14 66.0 °F 58.3 °F 30.21 in WNW 0.9 mph 5.0 mph 76% 0.00 in
04:24 65.1 °F 58.5 °F 30.21 in ENE 2.0 mph 5.0 mph 79% 0.00 in
04:29 64.9 °F 58.3 °F 30.21 in Calm   2.0 mph 79% 0.00 in
04:34 64.9 °F 57.9 °F 30.21 in SE 2.9 mph 6.0 mph 78% 0.00 in
04:39 65.1 °F 58.1 °F 30.21 in ESE 2.0 mph 8.0 mph 78% 0.00 in
04:44 65.3 °F 57.9 °F 30.21 in SSE 2.9 mph 11.0 mph 77% 0.00 in
04:49 65.5 °F 58.1 °F 30.21 in North 0.9 mph 2.0 mph 77% 0.00 in
04:54 65.1 °F 58.1 °F 30.20 in SE 4.9 mph 6.0 mph 78% 0.00 in
04:59 64.9 °F 57.6 °F 30.20 in NE 2.9 mph 14.0 mph 77% 0.00 in
05:04 64.9 °F 57.6 °F 30.20 in NNE 2.0 mph 7.0 mph 77% 0.00 in
05:09 64.9 °F 57.6 °F 30.20 in North 2.0 mph 12.0 mph 77% 0.00 in
05:14 65.1 °F 57.4 °F 30.19 in SSE 2.9 mph 5.0 mph 76% 0.00 in
05:19 64.9 °F 57.2 °F 30.19 in ESE 0.9 mph 6.0 mph 76% 0.00 in
05:24 65.1 °F 57.4 °F 30.18 in NE 10.1 mph 10.1 mph 76% 0.00 in
05:29 64.9 °F 57.2 °F 30.18 in East 2.0 mph 6.0 mph 76% 0.00 in
05:34 64.9 °F 56.8 °F 30.18 in ENE 0.9 mph 3.0 mph 75% 0.00 in
05:44 64.9 °F 56.8 °F 30.17 in ESE 0.9 mph 5.0 mph 75% 0.00 in
05:49 64.9 °F 56.8 °F 30.17 in NE 4.9 mph 7.0 mph 75% 0.00 in
05:54 65.1 °F 56.7 °F 30.17 in NE 14.1 mph 14.1 mph 74% 0.00 in
05:59 64.9 °F 56.5 °F 30.17 in SW 0.9 mph 10.0 mph 74% 0.00 in
06:09 64.8 °F 56.3 °F 30.16 in East 2.0 mph 6.0 mph 74% 0.00 in
06:14 64.6 °F 56.5 °F 30.16 in NW 0.9 mph 2.0 mph 75% 0.00 in
06:24 64.6 °F 56.5 °F 30.16 in ENE 4.0 mph 8.0 mph 75% 0.00 in
06:29 64.6 °F 56.5 °F 30.16 in SE 2.0 mph 7.0 mph 75% 0.00 in
06:34 64.6 °F 56.8 °F 30.16 in NE 4.9 mph 7.0 mph 76% 0.00 in
06:39 64.2 °F 56.8 °F 30.16 in Calm   5.0 mph 77% 0.01 in
06:44 63.9 °F 57.2 °F 30.16 in ESE 2.0 mph 2.0 mph 79% 0.01 in
06:49 63.3 °F 57.7 °F 30.15 in ENE 2.9 mph 4.0 mph 82% 0.01 in
06:54 62.8 °F 57.6 °F 30.16 in Calm   2.0 mph 83% 0.01 in
06:59 62.8 °F 57.9 °F 30.16 in NE 2.9 mph 5.0 mph 84% 0.01 in
07:04 63.0 °F 58.1 °F 30.15 in ESE 0.9 mph 5.0 mph 84% 0.01 in
07:09 62.6 °F 58.1 °F 30.16 in ENE 2.0 mph 4.0 mph 85% 0.02 in
07:14 62.2 °F 58.3 °F 30.16 in WSW 2.0 mph 2.0 mph 87% 0.07 in
07:19 61.3 °F 58.1 °F 30.16 in NE 4.0 mph 4.0 mph 89% 0.07 in
07:24 61.3 °F 58.5 °F 30.16 in ENE 2.0 mph 4.0 mph 90% 0.07 in
07:34 61.3 °F 58.1 °F 30.16 in East 2.0 mph 7.0 mph 89% 0.07 in
07:44 62.1 °F 58.1 °F 30.14 in NE 4.0 mph 7.0 mph 87% 0.07 in
07:49 62.4 °F 57.2 °F 30.15 in ENE 2.0 mph 7.0 mph 83% 0.07 in
07:59 63.0 °F 57.0 °F 30.14 in ENE 2.0 mph 6.0 mph 81% 0.07 in
08:09 63.0 °F 56.7 °F 30.14 in ENE 4.9 mph 8.0 mph 80% 0.06 in
08:19 63.0 °F 57.4 °F 30.15 in East 2.9 mph 7.0 mph 82% 0.02 in
08:29 61.5 °F 56.7 °F 30.14 in ENE 2.9 mph 11.0 mph 84% 0.07 in
08:39 61.2 °F 57.0 °F 30.15 in NW 2.9 mph 6.0 mph 86% 0.08 in
08:49 61.0 °F 57.0 °F 30.14 in Calm   3.0 mph 87% 0.09 in
08:54 60.6 °F 56.5 °F 30.14 in ESE 4.0 mph 5.0 mph 86% 0.09 in
08:59 60.6 °F 56.7 °F 30.14 in ENE 0.9 mph 8.0 mph 87% 0.11 in
09:09 60.4 °F 57.6 °F 30.14 in NE 0.9 mph 5.0 mph 90% 0.13 in
09:19 59.9 °F 57.6 °F 30.13 in Calm   2.0 mph 92% 0.16 in
09:40 59.5 °F 58.1 °F 30.13 in Calm   2.0 mph 95% 0.16 in
09:50 59.5 °F 58.5 °F 30.12 in West 0.9 mph 3.0 mph 96% 0.18 in
10:10 60.1 °F 59.0 °F 30.13 in ESE 0.9 mph 2.0 mph 96% 0.16 in
10:20 60.3 °F 59.2 °F 30.12 in SE 0.9 mph 3.0 mph 96% 0.16 in
10:30 61.2 °F 59.4 °F 30.11 in ESE 4.0 mph 4.0 mph 94% 0.14 in
10:35 61.3 °F 59.4 °F 30.11 in SSE 0.9 mph 4.0 mph 93% 0.14 in
10:40 61.7 °F 59.4 °F 30.10 in NNE 2.9 mph 7.0 mph 92% 0.13 in
10:50 62.1 °F 58.8 °F 30.10 in NNE 2.9 mph 10.0 mph 89% 0.12 in
11:00 62.1 °F 58.8 °F 30.11 in ENE 2.9 mph 11.0 mph 89% 0.13 in
11:15 61.3 °F 58.6 °F 30.13 in NE 0.9 mph 5.0 mph 91% 0.14 in
11:20 61.3 °F 58.6 °F 30.12 in SE 0.9 mph 6.0 mph 91% 0.14 in
11:30 61.3 °F 59.0 °F 30.13 in ESE 0.9 mph 2.0 mph 92% 0.14 in
11:35 61.0 °F 58.6 °F 30.12 in ENE 2.0 mph 6.0 mph 92% 0.14 in
11:40 61.2 °F 58.5 °F 30.13 in ENE 4.0 mph 6.0 mph 91% 0.13 in
12:00 61.5 °F 57.9 °F 30.11 in East 2.9 mph 8.0 mph 88% 0.12 in
12:05 61.2 °F 57.9 °F 30.11 in East 2.0 mph 4.0 mph 89% 0.11 in
12:15 61.2 °F 58.5 °F 30.12 in Calm   2.0 mph 91% 0.11 in
12:30 61.0 °F 57.7 °F 30.13 in East 2.9 mph 4.0 mph 89% 0.09 in
12:35 61.0 °F 58.6 °F 30.12 in ENE 2.0 mph 2.0 mph 92% 0.08 in
12:40 60.6 °F 57.9 °F 30.13 in WNW 0.9 mph 7.0 mph 91% 0.09 in
12:45 61.0 °F 57.7 °F 30.12 in ENE 2.0 mph 3.0 mph 89% 0.09 in
12:50 60.8 °F 56.8 °F 30.11 in ENE 4.0 mph 7.0 mph 87% 0.09 in
13:05 60.4 °F 57.6 °F 30.11 in WSW 0.9 mph 3.0 mph 90% 0.11 in
13:10 60.1 °F 57.7 °F 30.10 in Calm   2.0 mph 92% 0.10 in
13:25 59.5 °F 56.7 °F 30.07 in ESE 4.0 mph 4.0 mph 90% 0.10 in
13:30 59.4 °F 57.0 °F 30.05 in ENE 2.0 mph 2.0 mph 92% 0.11 in
13:35 59.2 °F 56.3 °F 30.03 in East 2.9 mph 8.0 mph 90% 0.11 in
13:40 59.4 °F 55.8 °F 30.01 in ESE 0.9 mph 4.0 mph 88% 0.10 in
13:45 59.7 °F 55.6 °F 30.00 in NE 10.1 mph 13.0 mph 86% 0.10 in
13:50 59.7 °F 55.6 °F 29.99 in South 2.0 mph 7.0 mph 86% 0.09 in
13:55 59.7 °F 56.1 °F 30.00 in Calm   3.0 mph 88% 0.08 in
14:06 59.7 °F 56.5 °F 30.00 in Calm   5.0 mph 89% 0.06 in
14:16 60.1 °F 56.1 °F 30.01 in ESE 2.9 mph 12.0 mph 87% 0.05 in
14:21 60.1 °F 57.4 °F 30.01 in ESE 2.0 mph 2.0 mph 91% 0.04 in
14:31 60.1 °F 56.8 °F 30.02 in Calm   1.0 mph 89% 0.02 in
14:46 60.3 °F 56.3 °F 30.01 in ESE 4.0 mph 6.0 mph 87% 0.01 in
14:51 60.3 °F 56.3 °F 30.01 in Calm   2.0 mph 87% 0.01 in
14:56 60.1 °F 56.1 °F 30.00 in Calm   2.0 mph 87% 0.02 in
15:01 60.1 °F 56.1 °F 30.00 in Calm   2.0 mph 87% 0.02 in
15:06 59.7 °F 56.8 °F 30.00 in Calm   2.0 mph 90% 0.04 in
15:11 59.4 °F 57.0 °F 30.00 in WNW 0.9 mph 1.0 mph 92% 0.05 in
15:16 59.2 °F 57.2 °F 29.99 in Calm   3.0 mph 93% 0.06 in
15:21 58.8 °F 57.0 °F 29.99 in NE 2.0 mph 2.0 mph 94% 0.08 in
15:26 58.6 °F 57.2 °F 29.98 in Calm     95% 0.09 in
15:31 58.5 °F 57.4 °F 29.98 in WNW 0.9 mph 2.0 mph 96% 0.11 in
15:36 58.3 °F 57.2 °F 29.98 in Calm     96% 0.14 in
15:41 58.3 °F 57.2 °F 29.97 in Calm   1.0 mph 96% 0.16 in
16:02 58.3 °F 57.4 °F 29.94 in Calm   1.0 mph 97% 0.23 in
16:07 58.3 °F 57.4 °F 29.94 in Calm   1.0 mph 97% 0.22 in
16:12 58.1 °F 57.2 °F 29.94 in Calm   2.0 mph 97% 0.22 in
16:17 58.1 °F 57.2 °F 29.94 in Calm     97% 0.22 in
16:27 57.9 °F 57.0 °F 29.94 in Calm   1.0 mph 97% 0.19 in
16:32 58.1 °F 57.2 °F 29.93 in Calm     97% 0.22 in
16:37 58.3 °F 57.4 °F 29.93 in Calm     97% 0.25 in
17:02 57.9 °F 57.0 °F 29.93 in Calm   1.0 mph 97% 0.57 in
17:17 57.9 °F 57.4 °F 29.94 in Calm     98% 0.56 in
17:27 57.9 °F 57.4 °F 29.91 in East 0.9 mph 2.0 mph 98% 0.60 in
17:32 57.9 °F 57.4 °F 29.92 in NW 0.9 mph 4.0 mph 98% 0.58 in
17:38 57.9 °F 57.4 °F 29.92 in Calm   1.0 mph 98% 0.52 in
17:43 57.9 °F 57.4 °F 29.91 in WNW 0.9 mph 1.0 mph 98% 0.48 in
18:03 57.7 °F 57.2 °F 29.92 in WNW 0.9 mph 5.0 mph 98% 0.31 in
18:23 57.4 °F 56.5 °F 29.93 in NW 0.9 mph 1.0 mph 97% 0.31 in
18:28 57.4 °F 56.5 °F 29.94 in WNW 0.9 mph 2.0 mph 97% 0.29 in
18:48 56.8 °F 55.9 °F 29.95 in WSW 4.0 mph 4.0 mph 97% 0.23 in
19:03 55.9 °F 54.9 °F 29.94 in NW 2.0 mph 6.0 mph 96% 0.03 in
19:08 55.8 °F 54.3 °F 29.94 in East 0.9 mph 2.0 mph 95% 0.01 in
19:13 55.4 °F 54.0 °F 29.95 in ESE 2.9 mph 3.0 mph 95% 0.00 in
19:18 55.0 °F 53.6 °F 29.96 in NW 2.9 mph 7.0 mph 95% 0.00 in
19:23 54.9 °F 53.2 °F 29.96 in SSW 2.0 mph 4.0 mph 94% 0.00 in
19:38 53.8 °F 51.8 °F 29.96 in Calm   2.0 mph 93% 0.00 in
19:44 53.4 °F 51.4 °F 29.96 in SSW 2.0 mph 5.0 mph 93% 0.00 in
19:49 53.2 °F 51.3 °F 29.96 in West 0.9 mph 3.0 mph 93% 0.00 in
19:54 53.1 °F 51.1 °F 29.96 in SW 2.0 mph 3.0 mph 93% 0.00 in
19:59 52.9 °F 50.9 °F 29.97 in SW 4.0 mph 4.0 mph 93% 0.00 in
20:04 52.5 °F 50.5 °F 29.96 in WSW 0.9 mph 4.0 mph 93% 0.00 in
20:09 52.5 °F 50.5 °F 29.96 in WSW 2.0 mph 2.0 mph 93% 0.00 in
20:14 52.2 °F 50.2 °F 29.96 in West 0.9 mph 2.0 mph 93% 0.00 in
20:19 52.0 °F 49.6 °F 29.97 in SE 0.9 mph 7.0 mph 92% 0.00 in
20:24 51.8 °F 49.6 °F 29.98 in SE 0.9 mph 4.0 mph 92% 0.00 in
20:29 51.6 °F 49.1 °F 29.98 in ENE 2.0 mph 3.0 mph 91% 0.00 in
20:34 51.3 °F 48.7 °F 29.98 in Calm   5.0 mph 91% 0.00 in
20:44 50.7 °F 48.2 °F 29.99 in Calm   3.0 mph 91% 0.00 in
20:49 50.5 °F 48.0 °F 30.00 in ENE 2.9 mph 3.0 mph 91% 0.00 in
20:59 50.2 °F 47.3 °F 30.01 in West 2.0 mph 4.0 mph 90% 0.00 in
21:04 49.8 °F 46.8 °F 30.02 in ESE 2.0 mph 4.0 mph 89% 0.00 in
21:09 49.5 °F 46.4 °F 30.02 in East 0.9 mph 3.0 mph 89% 0.00 in
21:14 48.9 °F 45.5 °F 30.02 in East 0.9 mph 3.0 mph 88% 0.00 in
21:24 48.4 °F 45.0 °F 30.02 in Calm   4.0 mph 88% 0.00 in
21:29 48.0 °F 44.4 °F 30.02 in SE 0.9 mph 5.0 mph 87% 0.00 in
21:39 47.7 °F 44.6 °F 30.03 in SW 0.9 mph 2.0 mph 89% 0.00 in
21:45 47.5 °F 44.1 °F 30.03 in Calm     88% 0.00 in
21:50 47.5 °F 44.4 °F 30.03 in Calm   2.0 mph 89% 0.00 in
21:55 47.1 °F 44.1 °F 30.03 in Calm   1.0 mph 89% 0.00 in
22:00 47.1 °F 44.1 °F 30.03 in Calm   2.0 mph 89% 0.00 in
22:05 47.1 °F 44.1 °F 30.04 in Calm   1.0 mph 89% 0.00 in
22:20 46.8 °F 43.7 °F 30.05 in WSW 0.9 mph 3.0 mph 89% 0.00 in
22:25 46.9 °F 43.5 °F 30.05 in Calm   4.0 mph 88% 0.00 in
22:30 46.8 °F 43.3 °F 30.04 in Calm   1.0 mph 88% 0.00 in
22:35 46.6 °F 43.5 °F 30.04 in East 0.9 mph 3.0 mph 89% 0.00 in
22:40 46.4 °F 43.0 °F 30.04 in SE 2.0 mph 4.0 mph 88% 0.00 in
22:45 46.2 °F 42.8 °F 30.04 in SE 2.0 mph 2.0 mph 88% 0.00 in
22:50 45.9 °F 42.3 °F 30.04 in SE 2.9 mph 5.0 mph 87% 0.00 in
23:05 44.8 °F 41.2 °F 30.05 in Calm   4.0 mph 87% 0.00 in
23:10 44.4 °F 40.8 °F 30.05 in Calm   4.0 mph 87% 0.00 in
23:15 44.2 °F 40.6 °F 30.06 in Calm   3.0 mph 87% 0.00 in
23:20 44.1 °F 40.5 °F 30.06 in Calm   1.0 mph 87% 0.00 in
23:25 43.9 °F 40.3 °F 30.07 in WSW 0.9 mph 2.0 mph 87% 0.00 in
23:35 43.7 °F 39.7 °F 30.07 in West 2.9 mph 4.0 mph 86% 0.00 in
23:40 43.5 °F 39.6 °F 30.07 in East 2.0 mph 4.0 mph 86% 0.00 in
23:45 43.3 °F 39.4 °F 30.08 in West 2.0 mph 3.0 mph 86% 0.00 in
23:50 43.2 °F 39.2 °F 30.08 in SW 0.9 mph 4.0 mph 86% 0.00 in
23:55 43.0 °F 39.4 °F 30.08 in Calm   1.0 mph 87% 0.00 in
WheeWeather.com
Compliments of Weather Underground - 2 mb